ADDS METAR Data INFO
IDs: Format: Raw Decoded Include TAF

Data at: 1841 UTC 16 Dec 2017

KMOT 161754Z 26013KT 10SM CLR 03/M02 A2989 RMK AO2 SLP138 T00281022 10033 20017 51024
KMOT 161654Z 27013KT 10SM OVC038 02/M02 A2988 RMK AO2 SLP134 T00221017
KMOT 161554Z 28017KT 10SM OVC039 03/M01 A2985 RMK AO2 SLP122 T00281011
KMOT 161521Z 28011KT 10SM SCT019 OVC041 02/M01 A2983 RMK AO2 T00221011
KMOT 161454Z 28010KT 10SM BKN020 OVC043 02/M01 A2982 RMK AO2 SLP112 T00221011 51022
KMOT 161431Z 28011KT 10SM SCT020 OVC043 02/M01 A2980 RMK AO2 T00221011
KMOT 161409Z 27013KT 10SM BKN021 OVC044 03/M01 A2980 RMK AO2 T00281006
KMOT 161354Z 27011KT 10SM FEW023 OVC043 03/M01 A2979 RMK AO2 SLP101 T00281006
KMOT 161254Z 28011KT 10SM FEW018 BKN040 02/M01 A2975 RMK AO2 SLP088 T00221006
KMOT 161244Z AUTO 29013KT 10SM SCT018 BKN040 02/M01 A2974 RMK AO2 T00221011
KMOT 161154Z AUTO 29012KT 10SM BKN018 OVC047 02/M01 A2972 RMK AO2 SLP081 T00221006 10044 20017 51023
KMOT 161134Z AUTO 29014KT 10SM BKN018 02/M01 A2971 RMK AO2 T00221006
KMOT 161054Z AUTO 28013KT 10SM FEW018 02/M01 A2969 RMK AO2 SLP071 T00221011
KMOT 160954Z AUTO 27012KT 10SM FEW037 03/M01 A2969 RMK AO2 SLP067 T00281006
KMOT 160854Z AUTO 28015KT 10SM BKN100 04/01 A2965 RMK AO2 SLP054 T00390006 53026
KMOT 160754Z AUTO 28014KT 10SM OVC090 04/01 A2962 RMK AO2 SLP042 T00440011
KMOT 160710Z AUTO 28015KT 10SM SCT027 BKN033 OVC085 04/02 A2960 RMK AO2 T00440017
KMOT 160654Z AUTO 28014KT 10SM BKN027 OVC032 04/02 A2959 RMK AO2 SLP034 T00440017
KMOT 160554Z AUTO 28012KT 10SM BKN023 BKN075 OVC085 04/02 A2957 RMK AO2 RAE04 SLP028 P0000 60000 T00440022 10067 20044 400671017 51019
KMOT 160539Z AUTO 28012KT 10SM BKN020 BKN039 OVC080 04/02 A2957 RMK AO2 RAE04 P0000 T00440022
KMOT 160454Z AUTO 27009KT 10SM -RA SCT024 BKN044 OVC060 04/02 A2955 RMK AO2 RAB0359 SLP023 P0000 T00440017
KMOT 160406Z AUTO 28009KT 10SM -RA BKN026 BKN060 OVC080 04/01 A2954 RMK AO2 RAB0359 P0000 T00440011
KMOT 160354Z 27007KT 10SM FEW026 BKN060 OVC080 05/01 A2954 RMK AO2 RAB0259E07 SLP018 P0000 T00500006
KMOT 160254Z 30010KT 10SM FEW075 OVC090 06/00 A2951 RMK AO2 SLP010 T00560000 53007
KMOT 160218Z 29014KT 10SM SCT026 BKN080 OVC090 06/M01 A2951 RMK AO2 T00611006
KMOT 160154Z 28013KT 10SM OVC026 07/M01 A2951 RMK AO2 SLP007 T00671011
KMOT 160143Z 29015KT 10SM BKN028 OVC100 07/M02 A2950 RMK AO2 T00671017
KMOT 160054Z 27012KT 10SM OVC035 06/M03 A2949 RMK AO2 SLP003 T00611028
KMOT 152354Z 26009KT 10SM SCT041 04/M04 A2949 RMK AO2 SLP004 T00441039 10050 20028 55008
KMOT 152254Z 24007KT 10SM FEW041 SCT110 04/M04 A2948 RMK AO2 SLP001 T00441039
KMOT 152154Z 24005KT 10SM CLR 05/M03 A2949 RMK AO2 SLP004 T00501033
KMOT 152054Z 24005KT 10SM OVC049 04/M03 A2952 RMK AO2 SLP012 T00441033 56025
KMOT 151954Z 26008KT 10SM OVC048 04/M04 A2953 RMK AO2 SLP015 T00391039
KMOT 151854Z 23008KT 10SM OVC048 03/M04 A2956 RMK AO2 SLP027 T00331039
KMOT 151754Z 21009KT 10SM OVC065 03/M03 A2959 RMK AO2 SLP039 T00281033 10028 21011 58021
KMOT 151654Z 19010KT 10SM OVC070 02/M03 A2963 RMK AO2 SLP051 T00171033
KMOT 151554Z 18008KT 10SM BKN080 OVC100 01/M04 A2964 RMK AO2 SLP057 T00061039
KMOT 151454Z 17005KT 10SM OVC100 M01/M04 A2966 RMK AO2 SLP064 T10061039 56038
KMOT 151354Z 17005KT 10SM OVC075 M01/M04 A2970 RMK AO2 SLP076 T10061039
KMOT 151254Z AUTO 13003KT 10SM SCT080 OVC095 M01/M04 A2973 RMK AO2 SLP089 T10111044
KMOT 151154Z AUTO 21006KT 10SM OVC090 M01/M04 A2978 RMK AO2 SLP103 T10111044 11006 21017 56016
KMOT 151054Z AUTO 21006KT 10SM SCT018 OVC095 M01/M05 A2980 RMK AO2 SLP109 T10111050
KMOT 151043Z AUTO 21005KT 10SM BKN018 BKN080 OVC095 M01/M05 A2981 RMK AO2 T10111050
KMOT 151031Z AUTO 22006KT 10SM SCT018 BKN080 OVC095 M01/M05 A2982 RMK AO2 T10111050
KMOT 151013Z AUTO 23005KT 10SM BKN018 OVC085 M01/M06 A2983 RMK AO2 T10111056
KMOT 150954Z AUTO 22006KT 10SM FEW018 OVC090 M01/M06 A2983 RMK AO2 SLP120 T10111056
KMOT 150854Z AUTO 23006KT 10SM BKN110 M02/M06 A2987 RMK AO2 SLP135 T10171056 56026
KMOT 150754Z AUTO 23006KT 10SM BKN100 M01/M06 A2988 RMK AO2 SLP141 T10111056
KMOT 150727Z AUTO 21005KT 10SM SCT027 BKN120 M01/M06 A2989 RMK AO2 T10111056
KMOT 150654Z AUTO 26006KT 10SM OVC027 M01/M06 A2992 RMK AO2 SLP155 T10061056